MET'MAP v2.0
soon released !

Expected late october,
this new version will be
more efficient, smarter,
and hosted on a brand new
server x3 powerfull...
...and still free !


Not compatible ?
Try the mobile version !

LOG IN : | Subscribe | Disclaimer | Who is Orbifly ? |
ICAO code :
Legend : VFR Marginal VFR IFR Intensive IFR Very Intensive IFR
Visi :
Ceiling :
>= 8 km
>= 3000ft
5 to 8 km
1000 to 3000 ft
1500m to 5 km
500 to 1000 ft
800 to 1500m
200 to 500 ft
< 800m
< 200 ft

METAR - LERL Central - 08 Apr 2020 01:01 UTC - Data Source NOAA   


- Airport Elevation : 2119 ft
- No reported NOTAMs.


LERL - Central

Latest METAR recorded : 2012/04/12 20:00 LERL 122000Z 13004KT 9999 BKN050 09/07 Q1005
TAF TAF LERL
Valid from the 07 at 21:00 until the 08 at 21:00 UTC


072000Z 0721/0821 VRB05KT 9999 SCT035 TX21/0815Z TN10/0806Z
TEMPO 0801/0809 0100 FG VV001
TEMPO 0805/0808 BKN006

Source NOAA


MET'MAP, your aeronautical weather chart ! - Copyright ORBIFLY December 2007

Programming & Development : Alexandra Zaïnal
Co-Developer : Marc-Olivier Méhu
Technical & hardware support : Manuel Goepfert
Concept & Financing : Baudouin d'Aumeries